Time;durP1;ratioP1;P1;durP2;ratioP2;P2;SDS_P1;SDS_P2;PMS_P1;PMS_P2;Temp;Humidity;BMP_temperature;BMP_pressure;BME280_temperature;BME280_humidity;BME280_pressure;Samples;Min_cycle;Max_cycle;Signal;HPM_P1;HPM_P2
2021/07/05 00:02:05;;;;;;;11.30;9.63;;;;;;;;;;5051180;28;20364;-84
2021/07/05 00:04:31;;;;;;;12.25;10.23;;;;;;;;;;5050837;28;20395;-84
2021/07/05 00:06:57;;;;;;;11.13;10.02;;;;;;;;;;5051570;28;20368;-84
2021/07/05 00:09:23;;;;;;;11.82;9.52;;;;;;;;;;5017065;28;20983;-84
2021/07/05 00:11:49;;;;;;;11.15;10.02;;;;;;;;;;5033252;28;20419;-85
2021/07/05 00:14:15;;;;;;;11.07;10.05;;;;;;;;;;5051395;28;20465;-85
2021/07/05 00:16:42;;;;;;;11.73;10.63;;;;;;;;;;5033288;28;20768;-85
2021/07/05 00:19:09;;;;;;;12.43;10.55;;;;;;;;;;5033507;28;20462;-84
2021/07/05 00:21:35;;;;;;;11.25;10.15;;;;;;;;;;5051108;28;20367;-84
2021/07/05 00:24:01;;;;;;;11.90;10.63;;;;;;;;;;5033256;28;20433;-84
2021/07/05 00:26:27;;;;;;;11.77;10.52;;;;;;;;;;5033524;28;20402;-84
2021/07/05 00:28:53;;;;;;;11.18;10.18;;;;;;;;;;5034121;28;20473;-84
2021/07/05 00:31:19;;;;;;;11.38;10.27;;;;;;;;;;5033891;28;20383;-84
2021/07/05 00:33:46;;;;;;;12.18;10.88;;;;;;;;;;5052341;28;20429;-84
2021/07/05 00:36:12;;;;;;;11.67;10.47;;;;;;;;;;5052298;28;20395;-84
2021/07/05 00:38:38;;;;;;;11.50;10.37;;;;;;;;;;5052713;28;20407;-84
2021/07/05 00:41:04;;;;;;;12.37;11.10;;;;;;;;;;5033296;28;20798;-84
2021/07/05 00:43:30;;;;;;;11.30;10.10;;;;;;;;;;5033376;28;20394;-84
2021/07/05 00:45:59;;;;;;;11.70;10.50;;;;;;;;;;5050477;28;20374;-84
2021/07/05 00:48:26;;;;;;;10.70;9.70;;;;;;;;;;5057195;28;20466;-85
2021/07/05 00:50:52;;;;;;;12.02;10.93;;;;;;;;;;5039011;28;20978;-84
2021/07/05 00:53:18;;;;;;;13.32;11.52;;;;;;;;;;5058009;28;20869;-84
2021/07/05 00:55:45;;;;;;;13.00;11.80;;;;;;;;;;5040335;28;20368;-85
2021/07/05 00:58:11;;;;;;;12.75;11.55;;;;;;;;;;5058520;28;20368;-84
2021/07/05 01:00:37;;;;;;;12.98;11.70;;;;;;;;;;5041295;28;20384;-84
2021/07/05 01:03:04;;;;;;;12.63;11.43;;;;;;;;;;5058992;28;20462;-84
2021/07/05 01:05:30;;;;;;;11.43;10.32;;;;;;;;;;5058656;28;20390;-86
2021/07/05 01:07:57;;;;;;;12.80;11.60;;;;;;;;;;5058000;28;20883;-84
2021/07/05 01:10:23;;;;;;;12.02;10.85;;;;;;;;;;5057531;28;20372;-85
2021/07/05 01:12:50;;;;;;;12.98;11.68;;;;;;;;;;5039719;28;20400;-84
2021/07/05 01:15:18;;;;;;;13.53;12.10;;;;;;;;;;5040792;28;20869;-84
2021/07/05 01:17:44;;;;;;;13.25;11.90;;;;;;;;;;5040222;28;20382;-84
2021/07/05 01:20:12;;;;;;;13.30;12.00;;;;;;;;;;5041163;28;20486;-85
2021/07/05 01:22:38;;;;;;;13.18;12.07;;;;;;;;;;5059224;28;20462;-84
2021/07/05 01:25:05;;;;;;;12.98;11.75;;;;;;;;;;5058912;28;20375;-85
2021/07/05 01:27:31;;;;;;;13.87;12.57;;;;;;;;;;5040789;28;20425;-84
2021/07/05 01:29:57;;;;;;;13.30;12.00;;;;;;;;;;5039791;28;20829;-85
2021/07/05 01:32:23;;;;;;;13.60;12.40;;;;;;;;;;5039655;28;20407;-84
2021/07/05 01:34:49;;;;;;;13.88;12.43;;;;;;;;;;5059549;28;20380;-85
2021/07/05 01:37:16;;;;;;;14.43;12.90;;;;;;;;;;5040163;28;20383;-84
2021/07/05 01:39:42;;;;;;;14.45;13.07;;;;;;;;;;5040846;28;20380;-84
2021/07/05 01:42:09;;;;;;;14.63;13.32;;;;;;;;;;5058571;28;20387;-84
2021/07/05 01:44:35;;;;;;;15.25;13.10;;;;;;;;;;5059352;28;20375;-84
2021/07/05 01:47:01;;;;;;;15.35;14.05;;;;;;;;;;5040705;28;20387;-84
2021/07/05 01:49:27;;;;;;;14.88;13.48;;;;;;;;;;5040594;28;20795;-85
2021/07/05 01:51:53;;;;;;;14.57;13.20;;;;;;;;;;5040873;28;20376;-84
2021/07/05 01:54:19;;;;;;;15.80;14.25;;;;;;;;;;5040747;28;20404;-83
2021/07/05 01:56:46;;;;;;;14.88;13.48;;;;;;;;;;5041170;28;21164;-83
2021/07/05 01:59:12;;;;;;;14.60;13.25;;;;;;;;;;5037101;28;20364;-83
2021/07/05 02:01:38;;;;;;;15.00;13.50;;;;;;;;;;5055600;28;20375;-85
2021/07/05 02:04:05;;;;;;;15.50;14.10;;;;;;;;;;5055184;28;20394;-85
2021/07/05 02:06:31;;;;;;;16.35;14.80;;;;;;;;;;5055684;28;20379;-84
2021/07/05 02:08:57;;;;;;;15.68;14.27;;;;;;;;;;5038376;28;20887;-84
2021/07/05 02:11:23;;;;;;;15.52;14.00;;;;;;;;;;5055407;28;20869;-84
2021/07/05 02:13:51;;;;;;;16.65;15.05;;;;;;;;;;5037096;28;20488;-84
2021/07/05 02:16:17;;;;;;;14.93;13.63;;;;;;;;;;5054285;28;20613;-84
2021/07/05 02:18:43;;;;;;;15.55;14.18;;;;;;;;;;5037182;28;20737;-84
2021/07/05 02:21:09;;;;;;;15.38;13.95;;;;;;;;;;5037302;28;20386;-84
2021/07/05 02:23:36;;;;;;;16.02;14.48;;;;;;;;;;5055339;28;20456;-84
2021/07/05 02:26:04;;;;;;;16.58;14.88;;;;;;;;;;5056046;28;20366;-84
2021/07/05 02:28:31;;;;;;;16.52;15.02;;;;;;;;;;5055123;28;20390;-84
2021/07/05 02:30:58;;;;;;;17.73;16.23;;;;;;;;;;5035412;28;20376;-84
2021/07/05 02:33:26;;;;;;;17.08;15.57;;;;;;;;;;5054568;28;20489;-84
2021/07/05 02:35:53;;;;;;;17.20;15.70;;;;;;;;;;5037102;28;20388;-84
2021/07/05 02:38:20;;;;;;;16.83;15.32;;;;;;;;;;5037042;28;20923;-84
2021/07/05 02:40:47;;;;;;;15.90;14.48;;;;;;;;;;5037400;28;20738;-84
2021/07/05 02:43:14;;;;;;;18.67;15.73;;;;;;;;;;5055243;28;20822;-84
2021/07/05 02:45:43;;;;;;;16.67;15.27;;;;;;;;;;5055338;28;20380;-84
2021/07/05 02:48:10;;;;;;;17.90;16.30;;;;;;;;;;5054921;28;20364;-84
2021/07/05 02:50:38;;;;;;;17.73;16.20;;;;;;;;;;5055053;28;20465;-84
2021/07/05 02:53:05;;;;;;;18.02;16.35;;;;;;;;;;5036774;28;20407;-84
2021/07/05 02:55:31;;;;;;;16.55;14.98;;;;;;;;;;5020712;28;20392;-84
2021/07/05 02:57:57;;;;;;;16.97;15.23;;;;;;;;;;5035600;28;20753;-83
2021/07/05 03:00:28;;;;;;;16.98;15.52;;;;;;;;;;5034395;28;20380;-84
2021/07/05 03:02:54;;;;;;;16.75;15.07;;;;;;;;;;5036008;28;20903;-84
2021/07/05 03:05:21;;;;;;;18.25;16.20;;;;;;;;;;5053540;28;20462;-84
2021/07/05 03:07:47;;;;;;;16.50;15.10;;;;;;;;;;5035722;28;20730;-83
2021/07/05 03:10:17;;;;;;;16.90;15.15;;;;;;;;;;5053869;28;20375;-83
2021/07/05 03:12:44;;;;;;;17.17;15.48;;;;;;;;;;5054644;28;20408;-84
2021/07/05 03:15:12;;;;;;;16.80;15.30;;;;;;;;;;5053360;28;20699;-84
2021/07/05 03:17:38;;;;;;;17.40;15.68;;;;;;;;;;5053243;28;20865;-84
2021/07/05 03:20:08;;;;;;;17.67;16.10;;;;;;;;;;5035726;28;20394;-83
2021/07/05 03:22:35;;;;;;;16.42;14.82;;;;;;;;;;5053704;28;20364;-84
2021/07/05 03:25:02;;;;;;;15.80;14.20;;;;;;;;;;5036276;28;20388;-84
2021/07/05 03:27:28;;;;;;;15.10;13.63;;;;;;;;;;5037008;28;20452;-84
2021/07/05 03:29:55;;;;;;;15.68;13.10;;;;;;;;;;5055492;28;20509;-84
2021/07/05 03:32:21;;;;;;;16.27;14.60;;;;;;;;;;5053272;28;20512;-84
2021/07/05 03:34:47;;;;;;;16.10;14.63;;;;;;;;;;5054609;28;20934;-84
2021/07/05 03:37:13;;;;;;;16.95;14.80;;;;;;;;;;5036622;28;20456;-84
2021/07/05 03:39:39;;;;;;;16.88;14.90;;;;;;;;;;5053669;28;20383;-84
2021/07/05 03:42:05;;;;;;;16.63;14.88;;;;;;;;;;5053656;28;20407;-84
2021/07/05 03:44:31;;;;;;;15.98;14.38;;;;;;;;;;5053618;28;20454;-84
2021/07/05 03:46:57;;;;;;;14.98;13.57;;;;;;;;;;5034765;28;20479;-84
2021/07/05 03:49:23;;;;;;;15.18;13.70;;;;;;;;;;5054390;28;20371;-84
2021/07/05 03:51:50;;;;;;;14.88;13.48;;;;;;;;;;5035740;28;20423;-84
2021/07/05 03:54:16;;;;;;;14.35;13.00;;;;;;;;;;5055322;28;20410;-82
2021/07/05 03:56:43;;;;;;;13.97;12.80;;;;;;;;;;5054894;28;20383;-84
2021/07/05 03:59:09;;;;;;;14.93;13.50;;;;;;;;;;5054090;28;20375;-84
2021/07/05 04:01:35;;;;;;;14.25;13.05;;;;;;;;;;5052159;28;20376;-84
2021/07/05 04:04:01;;;;;;;15.63;14.23;;;;;;;;;;5053019;28;20459;-84
2021/07/05 04:06:27;;;;;;;15.23;13.82;;;;;;;;;;5035107;28;20400;-84
2021/07/05 04:08:55;;;;;;;14.15;12.85;;;;;;;;;;5053949;28;20376;-84
2021/07/05 04:11:22;;;;;;;15.35;13.95;;;;;;;;;;5036116;28;20391;-84
2021/07/05 04:13:48;;;;;;;13.93;12.73;;;;;;;;;;5053716;28;20987;-84
2021/07/05 04:16:14;;;;;;;17.80;14.02;;;;;;;;;;5053442;28;20374;-84
2021/07/05 04:18:40;;;;;;;14.23;13.00;;;;;;;;;;5034597;28;20412;-83
2021/07/05 04:21:06;;;;;;;14.02;12.73;;;;;;;;;;5052524;28;20375;-84
2021/07/05 04:23:32;;;;;;;14.32;13.02;;;;;;;;;;5035324;28;20410;-83
2021/07/05 04:25:59;;;;;;;14.00;12.80;;;;;;;;;;5053772;28;20376;-83
2021/07/05 04:28:25;;;;;;;14.30;13.00;;;;;;;;;;5035028;28;20390;-83
2021/07/05 04:30:51;;;;;;;14.35;12.85;;;;;;;;;;5053786;28;20379;-84
2021/07/05 04:33:17;;;;;;;14.52;13.23;;;;;;;;;;5053083;28;21109;-84
2021/07/05 04:35:43;;;;;;;15.63;13.93;;;;;;;;;;5034196;28;20421;-82
2021/07/05 04:38:09;;;;;;;15.87;14.37;;;;;;;;;;5035520;28;20873;-83
2021/07/05 04:40:36;;;;;;;14.63;13.23;;;;;;;;;;5034751;28;20375;-84
2021/07/05 04:43:03;;;;;;;16.08;14.48;;;;;;;;;;5033413;28;20402;-84
2021/07/05 04:45:30;;;;;;;16.25;14.57;;;;;;;;;;5033905;28;20403;-84
2021/07/05 04:47:57;;;;;;;17.33;15.35;;;;;;;;;;5033040;28;20384;-86
2021/07/05 04:50:23;;;;;;;14.88;13.52;;;;;;;;;;5033689;28;20465;-83
2021/07/05 04:52:49;;;;;;;16.27;14.65;;;;;;;;;;5051086;28;20395;-85
2021/07/05 04:55:16;;;;;;;16.08;14.50;;;;;;;;;;5051067;28;20370;-85
2021/07/05 04:57:43;;;;;;;16.08;13.95;;;;;;;;;;5032331;28;20416;-86
2021/07/05 05:00:11;;;;;;;14.43;13.13;;;;;;;;;;5049160;28;20375;-84
2021/07/05 05:02:38;;;;;;;14.90;13.30;;;;;;;;;;5049177;28;20463;-86
2021/07/05 05:05:05;;;;;;;14.52;12.93;;;;;;;;;;5031016;28;20415;-86
2021/07/05 05:07:31;;;;;;;14.43;12.95;;;;;;;;;;5049337;28;20449;-85
2021/07/05 05:10:01;;;;;;;13.43;12.02;;;;;;;;;;5031336;28;20886;-86
2021/07/05 05:12:27;;;;;;;14.05;12.65;;;;;;;;;;5049125;28;20390;-85
2021/07/05 05:14:53;;;;;;;13.13;11.73;;;;;;;;;;5030869;28;21000;-84
2021/07/05 05:17:19;;;;;;;13.40;12.00;;;;;;;;;;5031355;28;20467;-83
2021/07/05 05:19:45;;;;;;;13.18;11.80;;;;;;;;;;5031309;28;20379;-83
2021/07/05 05:22:13;;;;;;;14.05;11.75;;;;;;;;;;5031539;28;20387;-82
2021/07/05 05:24:38;;;;;;;12.95;11.63;;;;;;;;;;5048788;28;20956;-82
2021/07/05 05:27:05;;;;;;;14.77;11.38;;;;;;;;;;5048962;28;20380;-84
2021/07/05 05:29:32;;;;;;;15.73;12.73;;;;;;;;;;5049819;28;20383;-83
2021/07/05 05:31:58;;;;;;;12.73;11.35;;;;;;;;;;5030674;28;20372;-84
2021/07/05 05:34:24;;;;;;;13.38;11.98;;;;;;;;;;5033604;28;20435;-83
2021/07/05 05:36:50;;;;;;;12.95;11.65;;;;;;;;;;5053519;28;20775;-83
2021/07/05 05:39:16;;;;;;;14.90;11.98;;;;;;;;;;5052709;28;20406;-84
2021/07/05 05:41:42;;;;;;;18.05;13.38;;;;;;;;;;5053045;28;20457;-83
2021/07/05 05:44:08;;;;;;;14.57;12.45;;;;;;;;;;5035138;28;20387;-84
2021/07/05 05:46:34;;;;;;;12.43;11.23;;;;;;;;;;5035220;28;20376;-83
2021/07/05 05:49:01;;;;;;;14.80;12.43;;;;;;;;;;5052877;28;20424;-84
2021/07/05 05:51:32;;;;;;;12.88;11.57;;;;;;;;;;5035763;28;20376;-84
2021/07/05 05:54:01;;;;;;;12.50;11.27;;;;;;;;;;5036305;28;20413;-85
2021/07/05 05:56:28;;;;;;;13.13;11.82;;;;;;;;;;5053466;28;20379;-84
2021/07/05 05:58:59;;;;;;;13.77;12.38;;;;;;;;;;5036267;28;20384;-85
2021/07/05 06:01:25;;;;;;;16.65;11.70;;;;;;;;;;5052608;28;20437;-84
2021/07/05 06:03:52;;;;;;;13.05;11.85;;;;;;;;;;5054392;28;20730;-83
2021/07/05 06:06:18;;;;;;;12.05;10.85;;;;;;;;;;5034471;28;20463;-85
2021/07/05 06:08:44;;;;;;;11.30;10.18;;;;;;;;;;5052732;28;20940;-84
2021/07/05 06:11:10;;;;;;;12.05;10.63;;;;;;;;;;5052444;28;20441;-87
2021/07/05 06:13:36;;;;;;;11.40;9.88;;;;;;;;;;5052750;28;20407;-83
2021/07/05 06:16:02;;;;;;;12.30;9.67;;;;;;;;;;5035403;28;20372;-84
2021/07/05 06:18:28;;;;;;;9.20;8.40;;;;;;;;;;5053473;28;20387;-84
2021/07/05 06:20:54;;;;;;;10.65;8.13;;;;;;;;;;5052921;28;20371;-86
2021/07/05 06:23:24;;;;;;;10.98;8.05;;;;;;;;;;5053065;28;20376;-83
2021/07/05 06:25:50;;;;;;;11.43;8.05;;;;;;;;;;5053025;28;20372;-84
2021/07/05 06:28:17;;;;;;;8.77;7.65;;;;;;;;;;5052317;28;20387;-85
2021/07/05 06:30:43;;;;;;;11.33;8.00;;;;;;;;;;5051640;28;20368;-83
2021/07/05 06:33:09;;;;;;;8.75;7.95;;;;;;;;;;5052230;28;20406;-85
2021/07/05 06:35:36;;;;;;;7.27;6.60;;;;;;;;;;5033934;28;20376;-83
2021/07/05 06:38:02;;;;;;;8.10;7.00;;;;;;;;;;5036073;28;20880;-84
2021/07/05 06:40:28;;;;;;;10.82;7.47;;;;;;;;;;5034923;28;20379;-87
2021/07/05 06:42:54;;;;;;;8.25;7.45;;;;;;;;;;5034512;28;20453;-85
2021/07/05 06:45:20;;;;;;;8.38;7.57;;;;;;;;;;5034559;28;20471;-85
2021/07/05 06:47:46;;;;;;;10.02;7.82;;;;;;;;;;5035054;28;20474;-84
2021/07/05 06:50:12;;;;;;;8.23;7.33;;;;;;;;;;5035764;28;20364;-84
2021/07/05 06:52:38;;;;;;;9.60;7.80;;;;;;;;;;5035185;28;20374;-84
2021/07/05 06:55:05;;;;;;;8.93;7.00;;;;;;;;;;5036098;28;20447;-86
2021/07/05 06:57:34;;;;;;;9.85;8.15;;;;;;;;;;5051892;28;20379;-84
2021/07/05 07:00:01;;;;;;;11.73;7.95;;;;;;;;;;5035184;28;20380;-84
2021/07/05 07:02:27;;;;;;;8.63;7.50;;;;;;;;;;5053957;28;20416;-88
2021/07/05 07:04:53;;;;;;;14.40;9.43;;;;;;;;;;5052932;28;20572;-90
2021/07/05 07:07:19;;;;;;;9.65;7.18;;;;;;;;;;5033214;28;20380;-86
2021/07/05 07:09:45;;;;;;;7.78;7.05;;;;;;;;;;5051761;28;20508;-87
2021/07/05 07:12:11;;;;;;;10.50;7.10;;;;;;;;;;5033180;28;20453;-87
2021/07/05 07:14:37;;;;;;;11.00;7.40;;;;;;;;;;5051250;28;20395;-87
2021/07/05 07:17:05;;;;;;;14.68;7.20;;;;;;;;;;5033087;28;20380;-89
2021/07/05 07:19:32;;;;;;;8.98;7.10;;;;;;;;;;5033118;28;20384;-86
2021/07/05 07:22:02;;;;;;;6.53;5.93;;;;;;;;;;5032896;28;20368;-92
2021/07/05 07:24:28;;;;;;;8.20;6.50;;;;;;;;;;5051056;28;20384;-86
2021/07/05 07:26:54;;;;;;;8.65;6.88;;;;;;;;;;5051365;28;20846;-87
2021/07/05 07:29:20;;;;;;;10.65;6.88;;;;;;;;;;5033680;28;20800;-85
2021/07/05 07:31:46;;;;;;;8.15;6.95;;;;;;;;;;5032354;28;20380;-87
2021/07/05 07:34:12;;;;;;;7.65;6.20;;;;;;;;;;5032390;28;20431;-90
2021/07/05 07:36:40;;;;;;;7.57;6.78;;;;;;;;;;5032687;28;20389;-86
2021/07/05 07:39:09;;;;;;;9.13;6.70;;;;;;;;;;5031875;28;20454;-85
2021/07/05 07:41:35;;;;;;;8.77;7.22;;;;;;;;;;5032021;28;20785;-85
2021/07/05 07:44:02;;;;;;;8.40;7.20;;;;;;;;;;5049863;28;20921;-86
2021/07/05 07:46:29;;;;;;;7.95;7.20;;;;;;;;;;5049456;28;20364;-86
2021/07/05 07:48:55;;;;;;;8.15;6.97;;;;;;;;;;5049662;28;20760;-86
2021/07/05 07:51:21;;;;;;;7.30;6.60;;;;;;;;;;5049490;28;20371;-87
2021/07/05 07:53:47;;;;;;;8.05;7.28;;;;;;;;;;5031652;28;21160;-85
2021/07/05 07:56:13;;;;;;;9.13;7.65;;;;;;;;;;5030765;28;20371;-87
2021/07/05 07:58:39;;;;;;;9.47;7.00;;;;;;;;;;5031813;28;20371;-86
2021/07/05 08:01:07;;;;;;;8.50;7.60;;;;;;;;;;5049340;28;20368;-88
2021/07/05 08:03:33;;;;;;;8.13;7.30;;;;;;;;;;5031546;28;20847;-89
2021/07/05 08:05:59;;;;;;;10.55;8.88;;;;;;;;;;5031621;28;20522;-86
2021/07/05 08:08:25;;;;;;;14.02;10.15;;;;;;;;;;5031311;28;20379;-87
2021/07/05 08:10:51;;;;;;;11.57;9.43;;;;;;;;;;5031343;28;20390;-88
2021/07/05 08:13:17;;;;;;;13.15;10.07;;;;;;;;;;5031250;28;20757;-88
2021/07/05 08:15:43;;;;;;;10.53;9.07;;;;;;;;;;5032555;28;20507;-88
2021/07/05 08:18:09;;;;;;;10.68;8.27;;;;;;;;;;5031635;28;20368;-86
2021/07/05 08:20:35;;;;;;;12.25;9.80;;;;;;;;;;5031642;28;20738;-86
2021/07/05 08:23:02;;;;;;;11.80;8.73;;;;;;;;;;5032776;28;20380;-86
2021/07/05 08:25:28;;;;;;;11.35;8.30;;;;;;;;;;5031346;28;20387;-86
2021/07/05 08:27:54;;;;;;;11.20;8.47;;;;;;;;;;5036859;28;20372;-87
2021/07/05 08:30:22;;;;;;;9.05;7.65;;;;;;;;;;5034132;28;20390;-86
2021/07/05 08:32:51;;;;;;;10.80;8.23;;;;;;;;;;5052265;28;20374;-86
2021/07/05 08:35:18;;;;;;;9.27;7.75;;;;;;;;;;5031971;28;20383;-86
2021/07/05 08:37:44;;;;;;;8.20;7.33;;;;;;;;;;5049356;28;20386;-88
2021/07/05 08:40:10;;;;;;;9.77;8.00;;;;;;;;;;5031116;28;20376;-88
2021/07/05 08:42:37;;;;;;;11.57;7.70;;;;;;;;;;5031330;28;20422;-89
2021/07/05 08:45:04;;;;;;;9.75;7.80;;;;;;;;;;5049254;28;20418;-87
2021/07/05 08:47:33;;;;;;;9.88;7.97;;;;;;;;;;5049282;28;20376;-87
2021/07/05 08:49:59;;;;;;;10.43;8.82;;;;;;;;;;5049128;28;20364;-87
2021/07/05 08:52:25;;;;;;;8.68;7.85;;;;;;;;;;5049157;28;20372;-86
2021/07/05 08:54:51;;;;;;;9.37;8.37;;;;;;;;;;5048960;28;20395;-86
2021/07/05 08:57:27;;;;;;;15.32;8.57;;;;;;;;;;5031629;28;20376;-87
2021/07/05 08:59:54;;;;;;;10.60;8.07;;;;;;;;;;5031320;28;20784;-84
2021/07/05 09:02:20;;;;;;;13.13;8.40;;;;;;;;;;5049960;28;20372;-89
2021/07/05 09:04:50;;;;;;;8.82;8.02;;;;;;;;;;5031647;28;20794;-88
2021/07/05 09:07:16;;;;;;;8.35;7.55;;;;;;;;;;5031648;28;20866;-88
2021/07/05 09:10:05;;;;;;;9.32;8.45;;;;;;;;;;5035191;28;20368;-89
2021/07/05 09:12:31;;;;;;;9.10;8.20;;;;;;;;;;5024960;28;20732;-86
2021/07/05 09:15:12;;;;;;;9.43;8.20;;;;;;;;;;5016081;28;20380;-85
2021/07/05 09:17:40;;;;;;;9.70;8.70;;;;;;;;;;5016185;28;20708;-88
2021/07/05 09:20:15;;;;;;;9.65;8.65;;;;;;;;;;5017064;28;20373;-84
2021/07/05 09:23:01;;;;;;;10.57;8.38;;;;;;;;;;5015597;28;20389;-87
2021/07/05 09:25:34;;;;;;;12.48;9.52;;;;;;;;;;5002691;28;20428;-87
2021/07/05 09:28:00;;;;;;;10.02;8.70;;;;;;;;;;5015020;28;20385;-85
2021/07/05 09:30:34;;;;;;;10.40;9.27;;;;;;;;;;5032967;28;20369;-85
2021/07/05 09:33:19;;;;;;;10.23;9.33;;;;;;;;;;5032669;28;20404;-88
2021/07/05 09:35:46;;;;;;;10.93;9.85;;;;;;;;;;5033511;28;20387;-87
2021/07/05 09:38:12;;;;;;;9.88;8.88;;;;;;;;;;5016200;28;20812;-86
2021/07/05 09:40:38;;;;;;;10.95;9.80;;;;;;;;;;5015026;28;20373;-85
2021/07/05 09:43:21;;;;;;;11.52;10.32;;;;;;;;;;5014658;28;20389;-84
2021/07/05 09:45:48;;;;;;;9.90;9.00;;;;;;;;;;5033035;28;20413;-85
2021/07/05 09:48:18;;;;;;;9.88;8.88;;;;;;;;;;5014820;28;20404;-86
2021/07/05 09:50:46;;;;;;;10.93;9.68;;;;;;;;;;5014866;28;20393;-86
2021/07/05 09:53:27;;;;;;;9.80;8.85;;;;;;;;;;5033469;28;20397;-87
2021/07/05 09:55:53;;;;;;;8.98;8.07;;;;;;;;;;5016565;28;20428;-87
2021/07/05 09:58:32;;;;;;;9.85;8.90;;;;;;;;;;5034616;28;20381;-86
2021/07/05 10:00:58;;;;;;;9.15;8.35;;;;;;;;;;5013884;28;20416;-85
2021/07/05 10:03:35;;;;;;;9.32;8.43;;;;;;;;;;5014520;28;20421;-86
2021/07/05 10:06:21;;;;;;;8.68;7.82;;;;;;;;;;5013871;28;20460;-84
2021/07/05 10:08:47;;;;;;;8.95;7.35;;;;;;;;;;5014104;28;20388;-89
2021/07/05 10:11:14;;;;;;;8.32;7.45;;;;;;;;;;5032599;28;20388;-89
2021/07/05 10:13:43;;;;;;;7.67;6.97;;;;;;;;;;5014688;28;20487;-88
2021/07/05 10:16:13;;;;;;;6.90;6.30;;;;;;;;;;5016692;28;20393;-88
2021/07/05 10:18:40;;;;;;;7.13;6.38;;;;;;;;;;5014137;28;20374;-86
2021/07/05 10:21:06;;;;;;;5.78;5.28;;;;;;;;;;5031357;28;20366;-86
2021/07/05 10:23:34;;;;;;;5.50;4.80;;;;;;;;;;5031756;28;20511;-84
2021/07/05 10:26:01;;;;;;;5.05;4.40;;;;;;;;;;5031405;28;20408;-85
2021/07/05 10:28:28;;;;;;;3.65;3.10;;;;;;;;;;5031578;28;20373;-85
2021/07/05 10:30:54;;;;;;;4.70;3.33;;;;;;;;;;5032180;28;20739;-87
2021/07/05 10:33:20;;;;;;;3.50;3.20;;;;;;;;;;5014347;28;20409;-88
2021/07/05 10:35:51;;;;;;;8.60;3.63;;;;;;;;;;5014011;28;20378;-85
2021/07/05 10:38:20;;;;;;;3.63;3.33;;;;;;;;;;5031092;28;20365;-86
2021/07/05 10:40:47;;;;;;;3.70;3.40;;;;;;;;;;5013818;28;20751;-85
2021/07/05 10:43:18;;;;;;;4.40;2.95;;;;;;;;;;5031968;28;20369;-84
2021/07/05 10:45:53;;;;;;;4.03;3.23;;;;;;;;;;5030786;28;20879;-86
2021/07/05 10:48:37;;;;;;;5.40;3.40;;;;;;;;;;5032376;28;20369;-82
2021/07/05 10:51:04;;;;;;;4.53;4.13;;;;;;;;;;5032235;28;20405;-85
2021/07/05 10:53:33;;;;;;;4.22;3.83;;;;;;;;;;5013900;28;20404;-85
2021/07/05 10:55:59;;;;;;;4.28;3.88;;;;;;;;;;5031074;28;20856;-84
2021/07/05 10:58:32;;;;;;;5.10;4.05;;;;;;;;;;5030979;28;20382;-83
2021/07/05 11:00:59;;;;;;;4.80;3.72;;;;;;;;;;5013466;28;20456;-86
2021/07/05 11:03:38;;;;;;;4.28;3.63;;;;;;;;;;5014094;28;20413;-85
2021/07/05 11:06:11;;;;;;;5.20;4.28;;;;;;;;;;5013815;28;20392;-85
2021/07/05 11:08:48;;;;;;;4.80;4.40;;;;;;;;;;5013503;28;20461;-84
2021/07/05 11:11:21;;;;;;;5.47;4.28;;;;;;;;;;5013723;28;20398;-87
2021/07/05 11:13:48;;;;;;;4.75;4.35;;;;;;;;;;5013260;28;20911;-87
2021/07/05 11:16:14;;;;;;;4.50;4.10;;;;;;;;;;5013058;28;20389;-86
2021/07/05 11:18:42;;;;;;;5.33;4.47;;;;;;;;;;5013845;28;20385;-88
2021/07/05 11:21:09;;;;;;;4.38;3.97;;;;;;;;;;5013537;28;20382;-88
2021/07/05 11:24:07;;;;;;;6.00;5.15;;;;;;;;;;5013233;28;21123;-86
2021/07/05 11:26:37;;;;;;;5.22;4.82;;;;;;;;;;5013338;28;20394;-86
2021/07/05 11:29:23;;;;;;;5.22;4.53;;;;;;;;;;5013480;28;20378;-86
2021/07/05 11:31:51;;;;;;;4.70;4.30;;;;;;;;;;5031109;28;20385;-84
2021/07/05 11:34:27;;;;;;;6.57;4.53;;;;;;;;;;5031427;28;20409;-85
2021/07/05 11:37:11;;;;;;;4.93;4.53;;;;;;;;;;5014654;28;20382;-85
2021/07/05 11:39:42;;;;;;;5.15;4.53;;;;;;;;;;5014378;28;20950;-85
2021/07/05 11:42:08;;;;;;;7.95;4.97;;;;;;;;;;5013308;28;20886;-87
2021/07/05 11:44:47;;;;;;;4.57;4.10;;;;;;;;;;5012661;28;20400;-89
2021/07/05 11:47:33;;;;;;;5.55;4.53;;;;;;;;;;5030287;28;20409;-86
2021/07/05 11:50:25;;;;;;;5.18;4.30;;;;;;;;;;5011972;28;20468;-86
2021/07/05 11:52:55;;;;;;;4.70;4.20;;;;;;;;;;5021491;28;20378;-86
2021/07/05 11:55:22;;;;;;;5.40;4.30;;;;;;;;;;5012405;28;20472;-87
2021/07/05 11:57:52;;;;;;;4.97;4.20;;;;;;;;;;5013546;28;20374;-87
2021/07/05 12:00:19;;;;;;;5.47;4.18;;;;;;;;;;5014037;28;20373;-85
2021/07/05 12:02:45;;;;;;;4.72;3.90;;;;;;;;;;5030245;28;20440;-85
2021/07/05 12:05:12;;;;;;;5.03;4.57;;;;;;;;;;5013445;28;20373;-83
2021/07/05 12:07:39;;;;;;;5.22;3.95;;;;;;;;;;5013122;28;20373;-86
2021/07/05 12:10:13;;;;;;;5.00;4.50;;;;;;;;;;5012147;28;20420;-86
2021/07/05 12:12:39;;;;;;;4.70;4.20;;;;;;;;;;5012289;28;20429;-84
2021/07/05 12:15:06;;;;;;;5.65;4.53;;;;;;;;;;5011829;28;20834;-86
2021/07/05 12:17:32;;;;;;;4.72;3.90;;;;;;;;;;5011957;28;20744;-85
2021/07/05 12:19:58;;;;;;;5.43;3.95;;;;;;;;;;5029298;28;20855;-85
2021/07/05 12:22:25;;;;;;;4.60;4.00;;;;;;;;;;5011303;28;20385;-85
2021/07/05 12:24:55;;;;;;;4.40;4.00;;;;;;;;;;5011265;28;20381;-86
2021/07/05 12:27:23;;;;;;;5.70;4.47;;;;;;;;;;5011742;28;20378;-86
2021/07/05 12:29:55;;;;;;;4.30;3.92;;;;;;;;;;5011468;28;20717;-85
2021/07/05 12:32:26;;;;;;;4.60;4.13;;;;;;;;;;5011698;28;21006;-83
2021/07/05 12:34:54;;;;;;;5.07;4.30;;;;;;;;;;5012266;28;21155;-87
2021/07/05 12:37:23;;;;;;;4.30;3.90;;;;;;;;;;5012100;28;20391;-87
2021/07/05 12:39:51;;;;;;;4.40;4.00;;;;;;;;;;5029581;28;20381;-84
2021/07/05 12:42:20;;;;;;;4.13;3.72;;;;;;;;;;5011501;28;20393;-85
2021/07/05 12:44:46;;;;;;;3.87;3.57;;;;;;;;;;5011221;28;20520;-85
2021/07/05 12:47:12;;;;;;;4.55;3.65;;;;;;;;;;5028578;28;20396;-84
2021/07/05 12:49:38;;;;;;;3.80;3.50;;;;;;;;;;5011050;28;20411;-84
2021/07/05 12:52:05;;;;;;;4.43;3.90;;;;;;;;;;5011350;28;20378;-86
2021/07/05 12:54:31;;;;;;;4.00;3.60;;;;;;;;;;5011232;28;20962;-88
2021/07/05 12:57:14;;;;;;;5.03;3.93;;;;;;;;;;5028989;28;20519;-85
2021/07/05 12:59:41;;;;;;;4.00;3.70;;;;;;;;;;5029326;28;20374;-86
2021/07/05 13:02:27;;;;;;;3.93;3.60;;;;;;;;;;5029180;28;20377;-85
2021/07/05 13:05:03;;;;;;;4.22;3.60;;;;;;;;;;5010955;28;20463;-84
2021/07/05 13:07:29;;;;;;;3.60;3.30;;;;;;;;;;5028796;28;20374;-85
2021/07/05 13:10:04;;;;;;;6.65;3.90;;;;;;;;;;5011070;28;20431;-84
2021/07/05 13:12:30;;;;;;;3.85;3.30;;;;;;;;;;5011064;28;20428;-84
2021/07/05 13:15:11;;;;;;;4.03;3.17;;;;;;;;;;5011636;28;20477;-84
2021/07/05 13:17:38;;;;;;;5.20;3.10;;;;;;;;;;5011780;28;20390;-87
2021/07/05 13:20:14;;;;;;;3.28;3.00;;;;;;;;;;5029036;28;20476;-84
2021/07/05 13:22:57;;;;;;;3.85;2.97;;;;;;;;;;5011028;28;20474;-85
2021/07/05 13:25:24;;;;;;;4.70;3.08;;;;;;;;;;5029361;28;20496;-85
2021/07/05 13:27:51;;;;;;;3.13;2.88;;;;;;;;;;5029109;28;20370;-86
2021/07/05 13:30:18;;;;;;;3.28;2.92;;;;;;;;;;5011668;28;20480;-84
2021/07/05 13:32:52;;;;;;;2.95;2.65;;;;;;;;;;5029459;28;20370;-86
2021/07/05 13:35:24;;;;;;;3.00;2.60;;;;;;;;;;5010899;28;20796;-84
2021/07/05 13:37:50;;;;;;;3.95;2.40;;;;;;;;;;5011595;28;20378;-84
2021/07/05 13:40:21;;;;;;;3.00;2.80;;;;;;;;;;5010984;28;20427;-85
2021/07/05 13:42:48;;;;;;;3.53;2.65;;;;;;;;;;5029044;28;20381;-86
2021/07/05 13:45:17;;;;;;;2.95;2.65;;;;;;;;;;5028985;28;20414;-84
2021/07/05 13:47:51;;;;;;;2.63;2.42;;;;;;;;;;5011094;28;20385;-85
2021/07/05 13:50:20;;;;;;;2.50;2.30;;;;;;;;;;5011182;28;20880;-86
2021/07/05 13:52:52;;;;;;;2.73;2.43;;;;;;;;;;5011228;28;20382;-85
2021/07/05 13:55:21;;;;;;;3.33;2.10;;;;;;;;;;5012512;28;20374;-86
2021/07/05 13:57:47;;;;;;;2.20;2.00;;;;;;;;;;5014509;28;20905;-87
2021/07/05 14:00:14;;;;;;;2.22;2.03;;;;;;;;;;5031734;28;20366;-88
2021/07/05 14:02:41;;;;;;;3.55;2.30;;;;;;;;;;5014515;28;20785;-85
2021/07/05 14:05:30;;;;;;;3.07;2.10;;;;;;;;;;5032575;28;20412;-84
2021/07/05 14:08:01;;;;;;;3.33;2.33;;;;;;;;;;5021651;28;20412;-84
2021/07/05 14:10:27;;;;;;;4.35;2.42;;;;;;;;;;5014476;28;21277;-83
2021/07/05 14:12:54;;;;;;;3.17;2.35;;;;;;;;;;5014343;28;20378;-85
2021/07/05 14:15:20;;;;;;;2.83;2.30;;;;;;;;;;5014443;28;20390;-90
2021/07/05 14:17:46;;;;;;;3.92;2.50;;;;;;;;;;5032046;28;20431;-87
2021/07/05 14:20:13;;;;;;;2.45;2.20;;;;;;;;;;5014335;28;20453;-85
2021/07/05 14:22:39;;;;;;;2.40;2.20;;;;;;;;;;5014099;28;20465;-88
2021/07/05 14:25:06;;;;;;;5.28;2.40;;;;;;;;;;5013829;28;20385;-84
2021/07/05 14:27:32;;;;;;;2.40;2.20;;;;;;;;;;5013978;28;20448;-86
2021/07/05 14:29:58;;;;;;;3.08;2.35;;;;;;;;;;5031887;28;20477;-85
2021/07/05 14:32:25;;;;;;;2.30;1.85;;;;;;;;;;5014150;28;20914;-85
2021/07/05 14:34:51;;;;;;;2.80;2.00;;;;;;;;;;5013854;28;20409;-82
2021/07/05 14:37:17;;;;;;;2.50;1.92;;;;;;;;;;5031628;28;20370;-83